Alta, Indiana
Current Conditions -  °F | °C
As of 2:55 AM on Monday 24 Nov 2014 (Local Time) from KPRG Reporting Station
Overcast Overcast  
Wind Chill: 54°   Ceiling: 500
Heat Index: 54°   Visibility: 10mi
Dew Point: 54°   Wind: 17mph
Humidity: 100%   Direction: 200°SSW
Pressure: 29.21"   Gusts: NA
Location:  39.7643°N, 87.4119°W
Report Text: KPRG 240755Z AUTO 20015KT 10SM OVC005 12/12 A2921 RMK AO2 T01200120
Loading
Personal Weather Stations






























Interactive Weather Map New forecast layout! Learn more

10-Day Weather Forecast

Advertisements
Track Severe Weather on mobile